Cachoeira do Sul Airport


Codes: SSKS/QDB
Name: Cachoeira do Sul Airport
City: Cachoeira Do Sul
Country: Brazil
Elevation: 253 ft.

Photos at Cachoeira do Sul Airport


   Photos courtesy of SpottingLog. You can add your own sightings and photos by signing up for a free trial today.



No photos found.

Weather at Cachoeira do Sul Airport


Time (UTC)DescriptionTempratureWindCloud coverageVisibilityPressureHumidity
16-Jun-2024 03:00Light Rain18°C7 mph, E99%10000m1017hPa97%
16-Jun-2024 06:00Moderate Rain18°C7 mph, SE100%1636m1016hPa98%
16-Jun-2024 09:00Moderate Rain17°C9 mph, SE100%10000m1017hPa97%
16-Jun-2024 12:00Moderate Rain16°C9 mph, E100%10000m1018hPa98%
16-Jun-2024 15:00Moderate Rain16°C9 mph, E100%3541m1018hPa97%
16-Jun-2024 18:00Heavy Intensity Rain15°C7 mph, E100%5282m1016hPa97%
16-Jun-2024 21:00Light Rain15°C9 mph, SE100%10000m1016hPa96%
17-Jun-2024 00:00Light Rain15°C9 mph, SE100%10000m1016hPa96%
17-Jun-2024 03:00Light Rain16°C7 mph, SE100%10000m1015hPa97%
17-Jun-2024 06:00Light Rain15°C9 mph, SE100%10000m1014hPa96%
17-Jun-2024 09:00Overcast Clouds15°C7 mph, SE100%10000m1013hPa96%
17-Jun-2024 12:00Light Rain15°C7 mph, SE100%10000m1015hPa96%
17-Jun-2024 15:00Light Rain15°C7 mph, E100%10000m1014hPa96%
17-Jun-2024 18:00Light Rain15°C4 mph, E100%10000m1012hPa97%
17-Jun-2024 21:00Moderate Rain16°C4 mph, E100%4459m1011hPa98%
18-Jun-2024 00:00Light Rain16°C7 mph, E100%1275m1011hPa98%
18-Jun-2024 03:00Light Rain16°C7 mph, E100%10000m1009hPa99%
18-Jun-2024 06:00Light Rain16°C2 mph, NE99%10000m1008hPa98%
18-Jun-2024 09:00Light Rain17°C0 mph, E98%10000m1008hPa97%
18-Jun-2024 12:00Light Rain18°C2 mph, NE98%10000m1009hPa95%
18-Jun-2024 15:00Overcast Clouds22°C4 mph, NW87%10000m1009hPa84%
18-Jun-2024 18:00Light Rain23°C4 mph, NW85%10000m1007hPa79%
18-Jun-2024 21:00Scattered Clouds20°C2 mph, S41%10000m1007hPa93%
19-Jun-2024 00:00Light Rain19°C2 mph, NE59%10000m1009hPa97%
19-Jun-2024 03:00Light Rain18°C0 mph, NE100%8323m1010hPa98%
19-Jun-2024 06:00Moderate Rain18°C4 mph, NE100%10000m1009hPa99%
19-Jun-2024 09:00Light Rain18°C4 mph, NE100%10000m1010hPa98%
19-Jun-2024 12:00Light Rain18°C2 mph, N100%10000m1012hPa97%
19-Jun-2024 15:00Light Rain20°C2 mph, NE100%10000m1013hPa93%
19-Jun-2024 18:00Light Rain20°C4 mph, NE100%10000m1012hPa91%
19-Jun-2024 21:00Light Rain18°C2 mph, E100%10000m1012hPa95%
20-Jun-2024 00:00Overcast Clouds18°C4 mph, NE100%10000m1014hPa96%
20-Jun-2024 03:00Light Rain18°C0 mph, E100%7712m1014hPa98%
20-Jun-2024 06:00Moderate Rain18°C2 mph, N100%6085m1015hPa99%
20-Jun-2024 09:00Light Rain17°C4 mph, E100%9864m1015hPa99%
20-Jun-2024 12:00Light Rain17°C7 mph, SE100%10000m1017hPa98%
20-Jun-2024 15:00Light Rain17°C7 mph, SE100%10000m1017hPa96%
20-Jun-2024 18:00Overcast Clouds16°C7 mph, SE100%10000m1016hPa96%
20-Jun-2024 21:00Overcast Clouds16°C7 mph, SE100%10000m1017hPa96%
21-Jun-2024 00:00Light Rain16°C7 mph, SE100%10000m1018hPa96%